createdAt,value
2017-10-30T00:00:10.545Z,63.36
2017-10-30T00:00:42.208Z,63.34
2017-10-30T00:01:14.136Z,63.38
2017-10-30T00:01:46.019Z,63.41
2017-10-30T00:02:17.662Z,63.38
2017-10-30T00:02:49.985Z,63.41
2017-10-30T00:03:21.639Z,63.39
2017-10-30T00:03:53.579Z,63.41
2017-10-30T00:04:25.237Z,63.45
2017-10-30T00:04:56.881Z,63.46
2017-10-30T00:05:28.530Z,63.50
2017-10-30T00:06:00.182Z,63.46
2017-10-30T00:06:31.828Z,63.52
2017-10-30T00:07:03.603Z,63.53
2017-10-30T00:07:35.377Z,63.55
2017-10-30T00:08:07.328Z,63.60
2017-10-30T00:08:38.978Z,63.62
2017-10-30T00:09:10.674Z,63.60
2017-10-30T00:09:42.560Z,63.68
2017-10-30T00:10:14.444Z,63.59
2017-10-30T00:10:46.098Z,63.66
2017-10-30T00:11:17.749Z,63.67
2017-10-30T00:11:49.433Z,63.71
2017-10-30T00:12:21.413Z,63.74
2017-10-30T00:12:53.070Z,63.76
2017-10-30T00:13:24.720Z,63.76
2017-10-30T00:13:56.652Z,63.82
2017-10-30T00:14:28.568Z,63.82
2017-10-30T00:15:00.214Z,63.81
2017-10-30T00:15:31.861Z,63.81
2017-10-30T00:16:03.509Z,63.83
2017-10-30T00:16:35.158Z,63.87
2017-10-30T00:17:06.806Z,63.90
2017-10-30T00:17:38.502Z,63.91
2017-10-30T00:18:10.366Z,63.95
2017-10-30T00:18:42.244Z,63.93
2017-10-30T00:19:13.957Z,63.95
2017-10-30T00:19:45.906Z,63.98
2017-10-30T00:20:17.558Z,63.97
2017-10-30T00:20:52.926Z,64.00
2017-10-30T00:21:24.577Z,64.00
2017-10-30T00:21:56.222Z,64.00
2017-10-30T00:22:28.107Z,64.01
2017-10-30T00:23:00.356Z,64.03
2017-10-30T00:23:32.280Z,64.02
2017-10-30T00:24:03.953Z,64.04
2017-10-30T00:24:35.641Z,64.03
2017-10-30T00:25:07.290Z,64.08
2017-10-30T00:25:38.937Z,64.12
2017-10-30T00:26:10.586Z,64.17
2017-10-30T00:26:42.238Z,64.19
2017-10-30T00:27:13.885Z,64.21
2017-10-30T00:27:45.758Z,64.20
2017-10-30T00:28:17.409Z,64.29
2017-10-30T00:28:49.054Z,64.28
2017-10-30T00:29:20.882Z,64.32
2017-10-30T00:29:52.638Z,64.31
2017-10-30T00:30:24.285Z,64.26
2017-10-30T00:30:55.930Z,64.30
2017-10-30T00:31:27.578Z,64.31
2017-10-30T00:31:59.222Z,64.31
2017-10-30T00:32:30.882Z,64.31
2017-10-30T00:33:02.529Z,64.32
2017-10-30T00:33:34.324Z,64.39
2017-10-30T00:34:06.022Z,64.38
2017-10-30T00:34:37.669Z,64.37
2017-10-30T00:35:09.318Z,64.37
2017-10-30T00:35:40.973Z,64.41
2017-10-30T00:36:12.641Z,64.37
2017-10-30T00:36:44.517Z,64.38
2017-10-30T00:37:16.162Z,64.40
2017-10-30T00:37:47.805Z,64.40
2017-10-30T00:38:19.457Z,64.48
2017-10-30T00:38:51.105Z,64.51
2017-10-30T00:39:23.108Z,64.50
2017-10-30T00:39:54.945Z,64.54
2017-10-30T00:40:26.699Z,64.52
2017-10-30T00:40:58.529Z,64.50
2017-10-30T00:41:30.291Z,64.53
2017-10-30T00:42:01.945Z,64.51
2017-10-30T00:42:33.596Z,64.52
2017-10-30T00:43:05.245Z,64.58
2017-10-30T00:43:36.894Z,64.62
2017-10-30T00:44:08.542Z,64.63
2017-10-30T00:44:40.369Z,64.68
2017-10-30T00:45:12.021Z,64.60
2017-10-30T00:45:43.673Z,64.61
2017-10-30T00:46:15.318Z,64.59
2017-10-30T00:46:46.969Z,64.63
2017-10-30T00:47:18.662Z,64.88
2017-10-30T00:47:50.310Z,65.12
2017-10-30T00:48:21.954Z,64.85
2017-10-30T00:48:53.645Z,64.86
2017-10-30T00:49:25.533Z,64.88
2017-10-30T00:49:57.180Z,64.85
2017-10-30T00:50:28.827Z,64.90
2017-10-30T00:51:00.477Z,64.88
2017-10-30T00:51:32.124Z,64.63
2017-10-30T00:52:03.767Z,64.62
2017-10-30T00:52:35.413Z,64.59
2017-10-30T00:53:07.061Z,64.72
2017-10-30T00:53:38.702Z,64.63
2017-10-30T00:54:10.354Z,64.64
2017-10-30T00:54:42.025Z,64.66
2017-10-30T00:55:13.901Z,64.67
2017-10-30T00:55:45.554Z,64.68
2017-10-30T00:56:17.202Z,64.77
2017-10-30T00:56:48.849Z,64.70
2017-10-30T00:57:20.503Z,64.71
2017-10-30T00:57:52.310Z,64.73
2017-10-30T00:58:24.059Z,64.75
2017-10-30T00:58:55.709Z,64.71
2017-10-30T00:59:27.358Z,64.75
2017-10-30T00:59:59.065Z,64.87
2017-10-30T01:01:14.557Z,64.95
2017-10-30T01:01:46.507Z,64.95
2017-10-30T01:02:18.158Z,64.95
2017-10-30T01:02:49.811Z,65.02
2017-10-30T01:03:21.470Z,65.03
2017-10-30T01:03:53.117Z,65.02
2017-10-30T01:04:24.765Z,65.11
2017-10-30T01:04:56.417Z,65.09
2017-10-30T01:05:28.066Z,65.10
2017-10-30T01:05:59.769Z,65.06
2017-10-30T01:06:31.418Z,65.11
2017-10-30T01:07:03.062Z,65.14
2017-10-30T01:07:34.714Z,65.11
2017-10-30T01:08:06.361Z,65.08
2017-10-30T01:08:38.013Z,65.12
2017-10-30T01:09:09.800Z,65.23
2017-10-30T01:09:41.449Z,65.22
2017-10-30T01:10:13.097Z,65.26
2017-10-30T01:10:44.745Z,65.31
2017-10-30T01:11:16.641Z,65.38
2017-10-30T01:11:48.315Z,65.48
2017-10-30T01:12:19.965Z,65.48
2017-10-30T01:12:51.610Z,65.56
2017-10-30T01:13:23.253Z,65.60
2017-10-30T01:13:54.898Z,65.64
2017-10-30T01:14:26.545Z,65.71
2017-10-30T01:14:58.190Z,65.73
2017-10-30T01:15:29.838Z,65.76
2017-10-30T01:16:01.482Z,65.72
2017-10-30T01:16:33.162Z,65.81
2017-10-30T01:17:05.043Z,65.85
2017-10-30T01:17:36.706Z,65.94
2017-10-30T01:18:08.361Z,66.09
2017-10-30T01:18:40.014Z,66.14
2017-10-30T01:19:11.817Z,66.08
2017-10-30T01:19:43.466Z,66.16
2017-10-30T01:20:15.109Z,66.24
2017-10-30T01:20:46.797Z,66.11
2017-10-30T01:21:18.441Z,66.11
2017-10-30T01:21:50.634Z,66.09
2017-10-30T01:22:22.383Z,66.33
2017-10-30T01:22:54.257Z,66.21
2017-10-30T01:23:25.971Z,66.24
2017-10-30T01:23:57.923Z,66.25
2017-10-30T01:24:29.752Z,66.29
2017-10-30T01:25:01.441Z,66.23
2017-10-30T01:25:33.086Z,66.19
2017-10-30T01:26:04.734Z,66.14
2017-10-30T01:26:36.381Z,66.14
2017-10-30T01:27:08.080Z,66.05
2017-10-30T01:27:39.917Z,66.09
2017-10-30T01:28:11.673Z,66.14
2017-10-30T01:28:43.321Z,66.14
2017-10-30T01:29:15.155Z,66.10
2017-10-30T01:29:46.910Z,66.01
2017-10-30T01:30:18.760Z,65.77
2017-10-30T01:30:50.593Z,65.92
2017-10-30T01:31:22.446Z,65.75
2017-10-30T01:31:54.331Z,65.81
2017-10-30T01:32:26.038Z,65.76
2017-10-30T01:32:57.690Z,65.88
2017-10-30T01:33:29.334Z,65.78
2017-10-30T01:34:00.986Z,65.97
2017-10-30T01:34:32.629Z,65.78
2017-10-30T01:35:04.274Z,65.77
2017-10-30T01:35:36.147Z,65.81
2017-10-30T01:36:07.838Z,65.92
2017-10-30T01:36:39.492Z,65.96
2017-10-30T01:37:11.317Z,65.89
2017-10-30T01:37:43.071Z,66.06
2017-10-30T01:38:14.724Z,66.07
2017-10-30T01:38:46.611Z,66.09
2017-10-30T01:39:18.258Z,66.12
2017-10-30T01:39:49.905Z,65.88
2017-10-30T01:40:21.558Z,66.22
2017-10-30T01:40:53.246Z,66.10
2017-10-30T01:41:24.889Z,66.46
2017-10-30T01:41:56.538Z,66.19
2017-10-30T01:42:28.182Z,66.13
2017-10-30T01:42:59.832Z,66.10
2017-10-30T01:43:31.490Z,66.24
2017-10-30T01:44:03.389Z,66.19
2017-10-30T01:44:35.342Z,66.21
2017-10-30T01:45:06.990Z,66.31
2017-10-30T01:45:38.641Z,66.16
2017-10-30T01:46:10.514Z,66.32
2017-10-30T01:46:42.169Z,66.21
2017-10-30T01:47:13.814Z,66.39
2017-10-30T01:47:45.513Z,66.43
2017-10-30T01:48:17.154Z,66.44
2017-10-30T01:48:48.798Z,66.45
2017-10-30T01:49:20.446Z,66.47
2017-10-30T01:49:52.101Z,66.56
2017-10-30T01:50:23.742Z,66.58
2017-10-30T01:50:55.385Z,66.59
2017-10-30T01:51:27.033Z,66.67
2017-10-30T01:51:58.681Z,66.69
2017-10-30T01:52:30.334Z,66.74
2017-10-30T01:53:02.026Z,66.74
2017-10-30T01:53:33.669Z,66.72
2017-10-30T01:54:05.318Z,66.75
2017-10-30T01:54:36.961Z,66.72
2017-10-30T01:55:08.605Z,66.87
2017-10-30T01:55:40.249Z,66.87
2017-10-30T01:56:11.909Z,66.80
2017-10-30T01:56:43.551Z,66.79
2017-10-30T01:57:15.217Z,66.81
2017-10-30T01:57:46.905Z,66.80
2017-10-30T01:58:18.546Z,66.87
2017-10-30T01:58:50.233Z,66.89
2017-10-30T01:59:22.124Z,66.81
2017-10-30T01:59:53.873Z,66.89
2017-10-30T02:00:25.771Z,66.85
2017-10-30T02:00:57.417Z,66.86
2017-10-30T02:01:29.070Z,66.87
2017-10-30T02:02:00.725Z,66.91
2017-10-30T02:02:32.387Z,67.00
2017-10-30T02:03:04.263Z,67.11
2017-10-30T02:03:35.981Z,67.09
2017-10-30T02:04:07.930Z,67.28
2017-10-30T02:04:39.880Z,67.29
2017-10-30T02:05:11.530Z,67.26
2017-10-30T02:05:43.214Z,67.42
2017-10-30T02:06:14.861Z,67.61
2017-10-30T02:06:46.554Z,67.59
2017-10-30T02:07:18.202Z,67.62
2017-10-30T02:07:49.850Z,67.54
2017-10-30T02:08:21.500Z,67.41
2017-10-30T02:08:53.145Z,67.40
2017-10-30T02:09:24.789Z,67.42
2017-10-30T02:09:56.445Z,67.38
2017-10-30T02:10:28.094Z,67.23
2017-10-30T02:10:59.758Z,67.35
2017-10-30T02:11:31.445Z,67.35
2017-10-30T02:12:03.089Z,67.29
2017-10-30T02:12:34.738Z,67.20
2017-10-30T02:13:06.386Z,67.14
2017-10-30T02:13:38.026Z,67.26
2017-10-30T02:14:09.674Z,67.25
2017-10-30T02:14:41.317Z,67.20
2017-10-30T02:15:12.966Z,67.24
2017-10-30T02:15:44.613Z,67.24
2017-10-30T02:16:16.266Z,67.20
2017-10-30T02:16:48.258Z,67.26
2017-10-30T02:17:20.209Z,67.23
2017-10-30T02:17:51.858Z,67.31
2017-10-30T02:18:23.505Z,67.36
2017-10-30T02:18:55.155Z,67.39
2017-10-30T02:19:26.806Z,67.43
2017-10-30T02:19:58.449Z,67.45
2017-10-30T02:20:30.089Z,67.39
2017-10-30T02:21:01.738Z,67.43
2017-10-30T02:21:33.650Z,67.42
2017-10-30T02:22:05.306Z,67.51
2017-10-30T02:22:36.958Z,67.53
2017-10-30T02:23:08.601Z,67.62
2017-10-30T02:23:40.241Z,67.62
2017-10-30T02:24:11.890Z,67.54
2017-10-30T02:24:43.533Z,67.53
2017-10-30T02:25:15.450Z,67.67
2017-10-30T02:25:47.137Z,67.67
2017-10-30T02:26:18.789Z,67.58
2017-10-30T02:26:50.683Z,67.60
2017-10-30T02:27:22.337Z,67.57
2017-10-30T02:27:53.985Z,67.58
2017-10-30T02:28:25.629Z,67.59
2017-10-30T02:28:57.274Z,67.67
2017-10-30T02:29:28.961Z,67.75
2017-10-30T02:30:00.738Z,67.69
2017-10-30T02:30:32.493Z,67.73
2017-10-30T02:31:04.153Z,67.71
2017-10-30T02:31:35.802Z,67.79
2017-10-30T02:32:07.450Z,67.78
2017-10-30T02:32:39.104Z,67.65
2017-10-30T02:33:10.758Z,67.79
2017-10-30T02:33:42.409Z,67.66
2017-10-30T02:34:14.284Z,67.71
2017-10-30T02:34:45.944Z,67.61
2017-10-30T02:35:17.589Z,67.70
2017-10-30T02:35:49.238Z,68.02
2017-10-30T02:36:21.117Z,67.92
2017-10-30T02:36:52.800Z,68.01
2017-10-30T02:37:24.450Z,67.72
2017-10-30T02:37:56.097Z,67.80
2017-10-30T02:38:27.741Z,67.80
2017-10-30T02:38:59.386Z,67.77
2017-10-30T02:39:31.030Z,67.70
2017-10-30T02:40:02.683Z,67.70
2017-10-30T02:40:34.325Z,67.68
2017-10-30T02:41:05.969Z,67.62
2017-10-30T02:41:37.778Z,67.62
2017-10-30T02:42:09.527Z,67.65
2017-10-30T02:42:41.182Z,67.63
2017-10-30T02:43:12.825Z,67.63
2017-10-30T02:43:44.474Z,67.59
2017-10-30T02:44:16.118Z,67.65
2017-10-30T02:44:47.765Z,67.64
2017-10-30T02:45:19.578Z,67.62
2017-10-30T02:45:51.327Z,67.63
2017-10-30T02:46:23.162Z,67.58
2017-10-30T02:46:54.854Z,67.59
2017-10-30T02:47:26.502Z,67.56
2017-10-30T02:47:58.150Z,67.59
2017-10-30T02:48:29.806Z,67.59
2017-10-30T02:49:01.483Z,67.57
2017-10-30T02:49:33.129Z,67.68
2017-10-30T02:50:04.814Z,67.56
2017-10-30T02:50:36.461Z,67.72
2017-10-30T02:51:08.110Z,67.61
2017-10-30T02:51:39.753Z,67.67
2017-10-30T02:52:11.397Z,67.62
2017-10-30T02:52:43.286Z,67.61
2017-10-30T02:53:15.168Z,67.63
2017-10-30T02:53:46.814Z,67.74
2017-10-30T02:54:18.461Z,67.69
2017-10-30T02:54:50.111Z,67.69
2017-10-30T02:55:21.814Z,67.71
2017-10-30T02:55:53.461Z,67.62
2017-10-30T02:56:25.106Z,67.65
2017-10-30T02:56:56.757Z,67.63
2017-10-30T02:57:28.405Z,67.71
2017-10-30T02:58:00.045Z,67.68
2017-10-30T02:58:31.694Z,67.80
2017-10-30T02:59:03.341Z,67.74
2017-10-30T02:59:34.990Z,67.72
2017-10-30T03:00:06.638Z,67.82
2017-10-30T03:00:38.529Z,67.89
2017-10-30T03:01:10.182Z,67.86
2017-10-30T03:01:41.834Z,67.76
2017-10-30T03:02:13.496Z,67.84
2017-10-30T03:02:45.145Z,67.86
2017-10-30T03:03:16.793Z,67.82
2017-10-30T03:03:48.579Z,67.94
2017-10-30T03:04:20.329Z,68.00
2017-10-30T03:04:52.018Z,68.00
2017-10-30T03:05:23.678Z,68.07
2017-10-30T03:05:55.564Z,68.18
2017-10-30T03:06:27.213Z,68.13
2017-10-30T03:06:58.857Z,67.99
2017-10-30T03:07:30.506Z,68.14
2017-10-30T03:08:02.153Z,68.07
2017-10-30T03:08:33.838Z,68.10
2017-10-30T03:09:05.722Z,68.03
2017-10-30T03:09:37.569Z,67.95
2017-10-30T03:10:09.312Z,68.06
2017-10-30T03:10:40.962Z,68.03
2017-10-30T03:11:12.609Z,67.97
2017-10-30T03:11:44.253Z,67.94
2017-10-30T03:12:15.902Z,67.90
2017-10-30T03:12:47.553Z,67.87
2017-10-30T03:13:19.197Z,67.90
2017-10-30T03:13:50.841Z,67.83
2017-10-30T03:14:22.489Z,67.94
2017-10-30T03:14:54.138Z,67.92
2017-10-30T03:15:26.038Z,67.83
2017-10-30T03:15:57.941Z,67.72
2017-10-30T03:16:29.590Z,67.83
2017-10-30T03:17:01.267Z,67.76
2017-10-30T03:17:32.961Z,67.75
2017-10-30T03:18:04.614Z,67.71
2017-10-30T03:18:36.258Z,67.73
2017-10-30T03:19:07.902Z,67.65
2017-10-30T03:19:39.789Z,67.60
2017-10-30T03:20:11.453Z,67.54
2017-10-30T03:20:43.097Z,67.56
2017-10-30T03:21:14.745Z,67.49
2017-10-30T03:21:46.394Z,67.48
2017-10-30T03:22:18.038Z,67.46
2017-10-30T03:22:50.249Z,67.41
2017-10-30T03:23:22.203Z,67.36
2017-10-30T03:23:54.153Z,67.33
2017-10-30T03:24:25.801Z,67.35
2017-10-30T03:24:57.446Z,67.33
2017-10-30T03:25:29.089Z,67.27
2017-10-30T03:26:00.732Z,67.23
2017-10-30T03:26:32.377Z,67.20
2017-10-30T03:27:04.219Z,67.21
2017-10-30T03:27:35.874Z,67.27
2017-10-30T03:28:07.517Z,67.32
2017-10-30T03:28:39.165Z,67.29
2017-10-30T03:29:10.878Z,67.16
2017-10-30T03:29:42.828Z,67.06
2017-10-30T03:30:14.491Z,67.18
2017-10-30T03:30:46.150Z,67.02
2017-10-30T03:31:17.814Z,67.11
2017-10-30T03:31:49.514Z,67.11
2017-10-30T03:32:21.162Z,67.06
2017-10-30T03:32:52.805Z,67.08
2017-10-30T03:33:24.445Z,67.12
2017-10-30T03:33:56.090Z,67.14
2017-10-30T03:34:27.734Z,67.10
2017-10-30T03:34:59.378Z,67.12
2017-10-30T03:35:31.021Z,67.07
2017-10-30T03:36:02.670Z,67.11
2017-10-30T03:36:34.314Z,67.12
2017-10-30T03:37:06.121Z,67.12
2017-10-30T03:37:37.770Z,67.18
2017-10-30T03:38:09.457Z,67.18
2017-10-30T03:38:41.354Z,67.10
2017-10-30T03:39:13.183Z,67.17
2017-10-30T03:39:44.945Z,67.25
2017-10-30T03:40:16.780Z,67.25
2017-10-30T03:40:48.535Z,67.31
2017-10-30T03:41:20.489Z,67.36
2017-10-30T03:41:52.138Z,67.37
2017-10-30T03:42:23.825Z,67.38
2017-10-30T03:42:55.718Z,67.41
2017-10-30T03:43:27.373Z,67.43
2017-10-30T03:43:59.021Z,67.40
2017-10-30T03:44:30.950Z,67.50
2017-10-30T03:45:02.978Z,67.49
2017-10-30T03:45:34.849Z,67.54
2017-10-30T03:46:06.498Z,67.54
2017-10-30T03:46:38.149Z,67.62
2017-10-30T03:47:09.793Z,67.57
2017-10-30T03:47:41.438Z,67.57
2017-10-30T03:48:13.085Z,67.62
2017-10-30T03:48:44.725Z,67.59
2017-10-30T03:49:16.373Z,67.62
2017-10-30T03:49:48.252Z,67.64
2017-10-30T03:50:19.934Z,67.70
2017-10-30T03:50:51.882Z,67.75
2017-10-30T03:51:23.537Z,67.78
2017-10-30T03:51:55.190Z,67.84
2017-10-30T03:52:26.835Z,67.86
2017-10-30T03:52:58.485Z,67.87
2017-10-30T03:53:30.366Z,67.83
2017-10-30T03:54:02.038Z,67.85
2017-10-30T03:54:33.722Z,67.81
2017-10-30T03:55:05.587Z,67.95
2017-10-30T03:55:37.235Z,67.95
2017-10-30T03:56:08.916Z,68.03
2017-10-30T03:56:40.569Z,67.95
2017-10-30T03:57:12.221Z,67.94
2017-10-30T03:57:43.869Z,68.02
2017-10-30T03:58:15.509Z,68.02
2017-10-30T03:58:47.155Z,68.00
2017-10-30T03:59:18.798Z,68.07
2017-10-30T03:59:50.441Z,68.09
2017-10-30T04:00:22.090Z,68.08
2017-10-30T04:00:53.734Z,68.05
2017-10-30T04:01:25.381Z,68.03
2017-10-30T04:01:57.025Z,68.04
2017-10-30T04:02:28.677Z,68.08
2017-10-30T04:03:00.321Z,68.09
2017-10-30T04:03:31.970Z,68.04
2017-10-30T04:04:03.614Z,68.10
2017-10-30T04:04:35.493Z,68.06
2017-10-30T04:05:07.182Z,68.00
2017-10-30T04:05:38.833Z,68.15
2017-10-30T04:06:10.477Z,68.17
2017-10-30T04:06:42.253Z,68.08
2017-10-30T04:07:14.011Z,68.17
2017-10-30T04:07:45.664Z,68.12
2017-10-30T04:08:17.313Z,68.11
2017-10-30T04:08:48.956Z,68.17
2017-10-30T04:09:20.606Z,68.28
2017-10-30T04:09:52.249Z,68.27
2017-10-30T04:10:23.902Z,68.31
2017-10-30T04:10:55.549Z,68.17
2017-10-30T04:11:27.193Z,68.16
2017-10-30T04:11:58.841Z,68.18
2017-10-30T04:12:30.736Z,68.35
2017-10-30T04:13:02.385Z,68.26
2017-10-30T04:13:34.042Z,68.42
2017-10-30T04:14:05.687Z,68.37
2017-10-30T04:14:37.807Z,68.40
2017-10-30T04:15:09.502Z,68.35
2017-10-30T04:15:41.145Z,68.40
2017-10-30T04:16:12.793Z,68.39
2017-10-30T04:16:44.442Z,68.45
2017-10-30T04:17:16.125Z,68.53
2017-10-30T04:17:47.777Z,68.69
2017-10-30T04:18:19.425Z,68.67
2017-10-30T04:18:51.070Z,68.53
2017-10-30T04:19:22.718Z,68.49
2017-10-30T04:19:54.362Z,68.50
2017-10-30T04:20:26.237Z,68.50
2017-10-30T04:20:57.881Z,68.58
2017-10-30T04:21:29.535Z,68.52
2017-10-30T04:22:01.216Z,68.40
2017-10-30T04:22:32.911Z,68.54
2017-10-30T04:23:04.754Z,68.55
2017-10-30T04:23:36.398Z,68.59
2017-10-30T04:24:08.041Z,68.56
2017-10-30T04:24:39.690Z,68.55
2017-10-30T04:25:11.371Z,68.52
2017-10-30T04:25:43.320Z,68.55
2017-10-30T04:26:15.144Z,68.57
2017-10-30T04:26:46.829Z,68.74
2017-10-30T04:27:18.470Z,68.65
2017-10-30T04:27:50.118Z,68.83
2017-10-30T04:28:21.769Z,68.88
2017-10-30T04:28:53.416Z,68.86
2017-10-30T04:29:25.058Z,68.77
2017-10-30T04:29:56.761Z,68.78
2017-10-30T04:30:28.413Z,68.81
2017-10-30T04:31:00.101Z,68.77
2017-10-30T04:31:31.879Z,68.77
2017-10-30T04:32:03.637Z,68.79
2017-10-30T04:32:35.290Z,68.84
2017-10-30T04:33:06.938Z,68.80
2017-10-30T04:33:38.586Z,68.73
2017-10-30T04:34:10.237Z,68.76
2017-10-30T04:34:41.886Z,68.79
2017-10-30T04:35:13.796Z,68.79
2017-10-30T04:35:45.498Z,68.82
2017-10-30T04:36:17.142Z,68.76
2017-10-30T04:36:48.989Z,68.91
2017-10-30T04:37:20.667Z,68.93
2017-10-30T04:37:52.511Z,68.93
2017-10-30T04:38:24.262Z,69.01
2017-10-30T04:38:55.976Z,68.84
2017-10-30T04:39:27.740Z,68.91
2017-10-30T04:39:59.393Z,68.98
2017-10-30T04:40:31.042Z,68.90
2017-10-30T04:41:02.733Z,69.00
2017-10-30T04:41:34.378Z,68.96
2017-10-30T04:42:06.021Z,68.90
2017-10-30T04:42:37.713Z,68.88
2017-10-30T04:43:09.369Z,68.96
2017-10-30T04:43:41.009Z,68.90
2017-10-30T04:44:12.830Z,68.96
2017-10-30T04:44:44.583Z,68.89
2017-10-30T04:45:16.235Z,68.84
2017-10-30T04:45:47.877Z,68.81
2017-10-30T04:46:19.561Z,68.77
2017-10-30T04:46:51.209Z,68.77
2017-10-30T04:47:23.096Z,68.90
2017-10-30T04:47:54.932Z,68.77
2017-10-30T04:48:26.686Z,68.82
2017-10-30T04:48:58.636Z,68.88
2017-10-30T04:49:30.286Z,68.76
2017-10-30T04:50:01.933Z,68.87
2017-10-30T04:50:33.587Z,68.74
2017-10-30T04:51:05.235Z,68.93
2017-10-30T04:51:36.877Z,68.85
2017-10-30T04:52:08.517Z,68.90
2017-10-30T04:52:40.162Z,68.87
2017-10-30T04:53:11.809Z,69.11
2017-10-30T04:53:43.458Z,68.88
2017-10-30T04:54:15.363Z,68.78
2017-10-30T04:54:47.211Z,68.91
2017-10-30T04:55:18.857Z,68.86
2017-10-30T04:55:50.502Z,68.90
2017-10-30T04:56:22.148Z,69.03
2017-10-30T04:56:53.790Z,69.08
2017-10-30T04:57:25.442Z,68.73
2017-10-30T04:57:57.085Z,68.68
2017-10-30T04:58:28.730Z,68.57
2017-10-30T04:59:00.447Z,68.47
2017-10-30T04:59:32.098Z,68.53
2017-10-30T05:00:03.742Z,68.28
2017-10-30T05:00:35.390Z,68.30
2017-10-30T05:01:07.033Z,68.29
2017-10-30T05:01:38.678Z,68.34
2017-10-30T05:02:10.321Z,68.13
2017-10-30T05:02:41.969Z,68.16
2017-10-30T05:03:13.615Z,68.05
2017-10-30T05:03:45.270Z,68.01
2017-10-30T05:04:17.158Z,68.05
2017-10-30T05:04:48.823Z,67.95
2017-10-30T05:05:20.476Z,68.00
2017-10-30T05:05:52.117Z,68.04
2017-10-30T05:06:23.775Z,67.98
2017-10-30T05:06:55.426Z,67.85
2017-10-30T05:07:27.299Z,67.77
2017-10-30T05:07:58.973Z,67.73
2017-10-30T05:08:30.622Z,67.73
2017-10-30T05:09:02.273Z,67.69
2017-10-30T05:09:34.233Z,67.65
2017-10-30T05:10:05.922Z,67.69
2017-10-30T05:10:37.570Z,67.63
2017-10-30T05:11:09.438Z,67.57
2017-10-30T05:11:41.262Z,67.66
2017-10-30T05:12:13.030Z,67.56
2017-10-30T05:12:44.980Z,67.69
2017-10-30T05:13:16.630Z,67.55
2017-10-30T05:13:48.274Z,67.67
2017-10-30T05:14:19.962Z,67.72
2017-10-30T05:14:51.803Z,67.72
2017-10-30T05:15:23.449Z,67.74
2017-10-30T05:15:55.099Z,67.85
2017-10-30T05:16:26.776Z,67.83
2017-10-30T05:16:58.671Z,67.87
2017-10-30T05:17:30.317Z,67.93
2017-10-30T05:18:01.966Z,67.94
2017-10-30T05:18:33.963Z,67.79
2017-10-30T05:19:05.911Z,68.00
2017-10-30T05:19:37.860Z,67.98
2017-10-30T05:20:09.509Z,67.75
2017-10-30T05:20:41.153Z,68.04
2017-10-30T05:21:12.803Z,67.96
2017-10-30T05:21:44.450Z,67.88
2017-10-30T05:22:16.093Z,67.92
2017-10-30T05:22:47.738Z,67.98
2017-10-30T05:23:19.381Z,67.96
2017-10-30T05:23:51.026Z,68.08
2017-10-30T05:24:22.681Z,68.10
2017-10-30T05:24:54.330Z,68.04
2017-10-30T05:25:25.978Z,68.20
2017-10-30T05:25:57.630Z,68.28
2017-10-30T05:26:29.468Z,68.25
2017-10-30T05:27:01.117Z,68.42
2017-10-30T05:27:32.796Z,68.29
2017-10-30T05:28:04.446Z,68.37
2017-10-30T05:28:36.125Z,68.35
2017-10-30T05:29:07.781Z,68.39
2017-10-30T05:29:39.609Z,68.46
2017-10-30T05:30:11.257Z,68.51
2017-10-30T05:30:42.958Z,68.44
2017-10-30T05:31:14.609Z,68.51
2017-10-30T05:31:46.253Z,68.50
2017-10-30T05:32:17.902Z,68.54
2017-10-30T05:32:49.550Z,68.75
2017-10-30T05:33:21.194Z,68.77
2017-10-30T05:33:52.836Z,68.80
2017-10-30T05:34:25.014Z,68.79
2017-10-30T05:34:56.662Z,68.91
2017-10-30T05:35:28.346Z,68.96
2017-10-30T05:36:00.217Z,68.86
2017-10-30T05:36:32.135Z,68.95
2017-10-30T05:37:03.885Z,69.01
2017-10-30T05:37:35.760Z,69.00
2017-10-30T05:38:07.409Z,69.10
2017-10-30T05:38:39.050Z,69.16
2017-10-30T05:39:10.692Z,69.16
2017-10-30T05:39:42.398Z,69.14
2017-10-30T05:40:14.227Z,69.31
2017-10-30T05:40:45.993Z,69.23
2017-10-30T05:41:17.649Z,69.27
2017-10-30T05:41:49.298Z,69.33
2017-10-30T05:42:21.118Z,69.39
2017-10-30T05:42:52.809Z,69.32
2017-10-30T05:43:24.466Z,69.32
2017-10-30T05:43:56.109Z,69.43
2017-10-30T05:44:27.767Z,69.35
2017-10-30T05:44:59.435Z,69.39
2017-10-30T05:45:31.384Z,69.52
2017-10-30T05:46:03.033Z,69.63
2017-10-30T05:46:34.679Z,69.70
2017-10-30T05:47:06.378Z,69.57
2017-10-30T05:47:38.256Z,69.58
2017-10-30T05:48:10.208Z,69.84
2017-10-30T05:48:41.857Z,69.82
2017-10-30T05:49:13.502Z,69.84
2017-10-30T05:49:45.149Z,69.99
2017-10-30T05:50:16.798Z,69.79
2017-10-30T05:50:48.446Z,70.06
2017-10-30T05:51:20.094Z,70.01
2017-10-30T05:51:52.009Z,69.97
2017-10-30T05:52:23.661Z,69.79
2017-10-30T05:52:55.306Z,70.06
2017-10-30T05:53:26.954Z,69.98
2017-10-30T05:53:58.597Z,69.94
2017-10-30T05:54:30.245Z,69.90
2017-10-30T05:55:01.930Z,69.79
2017-10-30T05:55:33.758Z,69.73
2017-10-30T05:56:05.406Z,69.80
2017-10-30T05:56:37.059Z,69.80
2017-10-30T05:57:08.757Z,69.73
2017-10-30T05:57:40.411Z,69.82
2017-10-30T05:58:12.058Z,69.73
2017-10-30T05:58:43.709Z,69.72
2017-10-30T05:59:15.361Z,69.70
2017-10-30T05:59:47.013Z,69.72
2017-10-30T06:00:18.894Z,69.80
2017-10-30T06:00:50.546Z,69.75
2017-10-30T06:01:22.197Z,69.81
2017-10-30T06:01:53.842Z,69.79
2017-10-30T06:02:25.768Z,69.87
2017-10-30T06:02:57.612Z,69.77
2017-10-30T06:03:29.364Z,69.85
2017-10-30T06:04:01.016Z,69.81
2017-10-30T06:04:32.669Z,70.14
2017-10-30T06:05:04.318Z,70.07
2017-10-30T06:05:36.541Z,70.02
2017-10-30T06:06:08.376Z,70.10
2017-10-30T06:06:40.133Z,70.11
2017-10-30T06:07:11.973Z,70.10
2017-10-30T06:07:43.666Z,70.11
2017-10-30T06:08:15.313Z,70.16
2017-10-30T06:08:46.965Z,70.23
2017-10-30T06:09:18.609Z,70.32
2017-10-30T06:09:50.292Z,70.23
2017-10-30T06:10:21.941Z,70.12
2017-10-30T06:10:53.586Z,70.08
2017-10-30T06:11:25.233Z,70.19
2017-10-30T06:11:56.881Z,70.10
2017-10-30T06:12:28.525Z,70.01
2017-10-30T06:13:01.367Z,70.06
2017-10-30T06:13:33.260Z,70.04
2017-10-30T06:14:04.932Z,70.05
2017-10-30T06:14:36.586Z,70.10
2017-10-30T06:15:08.250Z,70.08
2017-10-30T06:15:39.897Z,70.10
2017-10-30T06:16:11.549Z,70.20
2017-10-30T06:16:43.193Z,70.03
2017-10-30T06:17:14.842Z,70.05
2017-10-30T06:17:46.490Z,70.12
2017-10-30T06:18:18.367Z,70.03
2017-10-30T06:18:50.048Z,69.96
2017-10-30T06:19:21.701Z,70.11
2017-10-30T06:19:53.345Z,70.00
2017-10-30T06:20:24.997Z,69.98
2017-10-30T06:20:56.645Z,69.93
2017-10-30T06:21:28.293Z,70.06
2017-10-30T06:21:59.938Z,70.02
2017-10-30T06:22:31.586Z,69.93
2017-10-30T06:23:03.238Z,69.94
2017-10-30T06:23:34.946Z,69.88
2017-10-30T06:24:06.594Z,69.84
2017-10-30T06:24:38.238Z,69.87
2017-10-30T06:25:09.878Z,70.00
2017-10-30T06:25:41.535Z,69.92
2017-10-30T06:26:13.182Z,69.91
2017-10-30T06:26:44.830Z,69.93
2017-10-30T06:27:16.478Z,70.47
2017-10-30T06:27:48.573Z,70.23
2017-10-30T06:28:20.523Z,70.00
2017-10-30T06:28:52.214Z,69.92
2017-10-30T06:29:23.861Z,69.87
2017-10-30T06:29:55.506Z,69.82
2017-10-30T06:30:27.397Z,69.59
2017-10-30T06:30:59.087Z,69.29
2017-10-30T06:31:30.988Z,68.68
2017-10-30T06:32:02.638Z,64.46
2017-10-30T06:32:34.289Z,65.51
2017-10-30T06:33:05.934Z,66.21
2017-10-30T06:33:37.580Z,65.92
2017-10-30T06:34:09.221Z,65.24
2017-10-30T06:34:40.869Z,63.65
2017-10-30T06:35:12.787Z,61.90
2017-10-30T06:35:44.453Z,61.54
2017-10-30T06:36:16.339Z,62.05
2017-10-30T06:36:48.022Z,61.75
2017-10-30T06:37:19.885Z,61.33
2017-10-30T06:37:51.534Z,60.56
2017-10-30T06:38:23.174Z,60.30
2017-10-30T06:38:54.826Z,60.19
2017-10-30T06:39:26.470Z,59.79
2017-10-30T06:39:58.118Z,59.61
2017-10-30T06:40:29.765Z,59.54
2017-10-30T06:41:01.411Z,58.83
2017-10-30T06:41:33.298Z,59.02
2017-10-30T06:42:05.055Z,58.30
2017-10-30T06:42:36.706Z,58.28
2017-10-30T06:43:08.354Z,58.16
2017-10-30T06:43:40.001Z,58.10
2017-10-30T06:44:11.645Z,58.41
2017-10-30T06:44:43.289Z,56.86
2017-10-30T06:45:15.074Z,57.91
2017-10-30T06:45:46.857Z,56.40
2017-10-30T06:46:18.505Z,56.40
2017-10-30T06:46:50.190Z,56.65
2017-10-30T06:47:21.837Z,56.71
2017-10-30T06:47:53.481Z,56.77
2017-10-30T06:48:25.130Z,55.95
2017-10-30T06:48:56.781Z,55.88